Time;durP1;ratioP1;P1;durP2;ratioP2;P2;SDS_P1;SDS_P2;PMS_P1;PMS_P2;Temp;Humidity;BMP_temperature;BMP_pressure;BME280_temperature;BME280_humidity;BME280_pressure;Samples;Min_cycle;Max_cycle;Signal;HPM_P1;HPM_P2
2020/12/08 00:00:46;;;;;;;12.53;10.70;;;7.70;94.60;15.00;98602.00;;;;5051197;28;20198;-67
2020/12/08 00:03:12;;;;;;;11.80;10.60;;;7.70;94.60;15.00;98607.00;;;;5050758;28;20182;-69
2020/12/08 00:05:37;;;;;;;12.97;10.97;;;7.70;94.60;14.90;98592.00;;;;5051499;28;20667;-66
2020/12/08 00:08:05;;;;;;;12.50;11.23;;;7.70;94.70;14.90;98597.00;;;;5034265;28;20249;-68
2020/12/08 00:10:31;;;;;;;12.07;10.88;;;7.70;94.70;15.00;98592.00;;;;5051459;28;20594;-67
2020/12/08 00:12:56;;;;;;;12.53;11.33;;;7.70;94.60;15.10;98595.00;;;;5034580;28;20210;-67
2020/12/08 00:15:22;;;;;;;11.80;10.70;;;7.70;94.60;15.20;98597.00;;;;5051440;28;20212;-67
2020/12/08 00:17:48;;;;;;;15.00;11.33;;;7.70;94.60;14.90;98595.00;;;;5051414;28;20277;-69
2020/12/08 00:20:18;;;;;;;12.80;11.50;;;7.70;94.60;14.90;98608.00;;;;5033722;28;20175;-67
2020/12/08 00:22:44;;;;;;;12.65;11.35;;;7.70;94.60;14.70;98605.00;;;;5050268;28;20202;-67
2020/12/08 00:25:10;;;;;;;12.75;11.48;;;7.70;94.60;15.10;98607.00;;;;5033527;28;20186;-68
2020/12/08 00:27:39;;;;;;;12.70;11.40;;;7.70;94.60;15.10;98607.00;;;;5033902;28;20237;-67
2020/12/08 00:30:07;;;;;;;13.05;11.65;;;7.70;94.60;14.80;98600.00;;;;5016993;28;20414;-67
2020/12/08 00:32:33;;;;;;;12.20;10.90;;;7.70;94.60;14.90;98615.00;;;;5016459;28;20233;-67
2020/12/08 00:34:59;;;;;;;13.13;11.10;;;7.70;94.60;14.70;98624.00;;;;5050507;28;20185;-67
2020/12/08 00:37:24;;;;;;;12.40;11.10;;;7.70;94.60;14.80;98619.00;;;;5049820;28;20562;-67
2020/12/08 00:39:50;;;;;;;12.27;11.10;;;7.70;95.00;14.90;98623.00;;;;5049903;28;20300;-67
2020/12/08 00:42:16;;;;;;;11.13;10.03;;;7.70;94.60;15.00;98632.00;;;;5038565;28;20684;-67
2020/12/08 00:44:41;;;;;;;11.60;10.50;;;7.70;94.60;14.90;98632.00;;;;5031011;28;20266;-67
2020/12/08 00:47:07;;;;;;;11.70;10.33;;;7.70;94.60;15.00;98638.00;;;;5037567;28;20210;-67
2020/12/08 00:49:33;;;;;;;11.73;10.63;;;7.60;94.50;15.00;98629.00;;;;5032269;28;20197;-67
2020/12/08 00:51:59;;;;;;;11.83;10.30;;;7.70;94.60;14.80;98639.00;;;;5050743;28;20793;-67
2020/12/08 00:54:24;;;;;;;11.67;10.57;;;7.70;94.60;14.80;98630.00;;;;5048691;28;20182;-67
2020/12/08 00:56:50;;;;;;;12.13;10.93;;;7.60;94.50;15.00;98628.00;;;;5047701;28;20209;-67
2020/12/08 00:59:16;;;;;;;10.70;9.60;;;7.60;94.50;15.10;98642.00;;;;5024259;28;20179;-67
2020/12/08 01:01:42;;;;;;;11.45;10.25;;;7.60;94.50;14.90;98641.00;;;;5028496;28;20210;-67
2020/12/08 01:04:11;;;;;;;10.00;8.70;;;7.70;94.60;14.90;98638.00;;;;5029077;28;20186;-67
2020/12/08 01:06:40;;;;;;;10.88;9.75;;;7.70;94.60;15.00;98633.00;;;;5027955;28;20202;-67
2020/12/08 01:09:07;;;;;;;12.27;10.02;;;7.60;94.50;15.10;98639.00;;;;5029021;28;20190;-68
2020/12/08 01:11:53;;;;;;;10.27;9.23;;;7.60;94.50;15.10;98644.00;;;;5027063;28;20211;-68
2020/12/08 01:14:18;;;;;;;12.48;11.18;;;7.60;94.50;14.90;98640.00;;;;5030156;28;20199;-68
2020/12/08 01:16:44;;;;;;;11.50;10.30;;;7.70;94.50;15.10;98638.00;;;;5029203;28;20257;-66
2020/12/08 01:19:10;;;;;;;12.90;10.67;;;7.60;94.50;14.80;98629.00;;;;5029651;28;20187;-66
2020/12/08 01:21:35;;;;;;;10.93;9.73;;;7.60;94.50;14.70;98638.00;;;;5027985;28;20668;-66
2020/12/08 01:24:01;;;;;;;10.43;9.33;;;7.60;94.50;14.90;98629.00;;;;5028912;28;20214;-66
2020/12/08 01:26:27;;;;;;;10.90;9.50;;;7.60;94.40;15.10;98639.00;;;;5028936;28;20241;-67
2020/12/08 01:28:53;;;;;;;10.67;9.57;;;7.60;94.40;14.90;98633.00;;;;5028781;28;20237;-66
2020/12/08 01:31:18;;;;;;;11.97;10.03;;;7.60;94.40;14.70;98638.00;;;;5029116;28;20806;-66
2020/12/08 01:33:44;;;;;;;11.17;10.00;;;7.60;94.40;14.70;98632.00;;;;5029527;28;20234;-66
2020/12/08 01:36:10;;;;;;;10.97;9.53;;;7.60;94.40;14.90;98612.00;;;;5029726;28;20252;-66
2020/12/08 01:38:35;;;;;;;10.60;9.50;;;7.60;94.40;15.10;98613.00;;;;5029095;28;20673;-67
2020/12/08 01:41:01;;;;;;;11.20;10.10;;;7.60;94.40;15.20;98627.00;;;;5029131;28;20210;-66
2020/12/08 01:43:27;;;;;;;11.20;10.00;;;7.60;94.40;15.10;98630.00;;;;5028545;28;20283;-66
2020/12/08 01:45:53;;;;;;;11.90;10.70;;;7.60;94.40;15.30;98628.00;;;;5029397;28;20465;-66
2020/12/08 01:48:19;;;;;;;11.10;10.00;;;7.60;94.80;15.10;98619.00;;;;5028799;28;20256;-66
2020/12/08 01:50:45;;;;;;;10.20;9.17;;;7.60;94.40;14.90;98628.00;;;;5028516;28;20203;-66
2020/12/08 01:53:11;;;;;;;10.60;9.50;;;7.60;94.40;15.10;98613.00;;;;5028705;28;20193;-66
2020/12/08 01:55:40;;;;;;;11.15;10.05;;;7.60;94.40;15.20;98631.00;;;;5028566;28;20663;-66
2020/12/08 01:58:20;;;;;;;12.32;11.02;;;7.60;94.40;15.20;98610.00;;;;5028625;28;20178;-66
2020/12/08 02:00:49;;;;;;;13.15;10.52;;;7.60;94.40;15.00;98609.00;;;;5029146;28;20214;-67
2020/12/08 02:03:16;;;;;;;11.40;10.23;;;7.60;94.40;14.80;98604.00;;;;5028922;28;20182;-67
2020/12/08 02:05:42;;;;;;;11.45;10.30;;;7.60;94.40;15.00;98621.00;;;;5028861;28;20397;-67
2020/12/08 02:08:08;;;;;;;11.52;10.32;;;7.60;94.40;15.30;98620.00;;;;5028716;28;20182;-67
2020/12/08 02:10:34;;;;;;;10.73;9.63;;;7.60;94.40;15.30;98607.00;;;;5028278;28;20187;-67
2020/12/08 02:13:00;;;;;;;12.95;11.55;;;7.60;94.40;15.10;98608.00;;;;5028260;28;20689;-67
2020/12/08 02:15:32;;;;;;;10.32;9.05;;;7.60;94.40;14.80;98600.00;;;;5012306;28;20182;-67
2020/12/08 02:17:58;;;;;;;11.95;10.48;;;7.60;94.40;15.10;98614.00;;;;5027629;28;20182;-67
2020/12/08 02:20:27;;;;;;;11.67;10.23;;;7.60;94.40;15.10;98619.00;;;;5028732;28;20186;-67
2020/12/08 02:23:02;;;;;;;11.98;10.63;;;7.60;94.40;14.90;98608.00;;;;5011365;28;20474;-68
2020/12/08 02:25:28;;;;;;;11.98;10.77;;;7.60;94.40;15.10;98598.00;;;;5028011;28;20181;-67
2020/12/08 02:27:53;;;;;;;11.90;10.53;;;7.60;94.40;15.00;98580.00;;;;5028557;28;20172;-67
2020/12/08 02:30:19;;;;;;;11.00;9.90;;;7.60;94.40;15.20;98593.00;;;;5028095;28;20179;-67
2020/12/08 02:32:45;;;;;;;11.20;10.00;;;7.60;94.40;15.10;98593.00;;;;5027697;28;20590;-67
2020/12/08 02:35:10;;;;;;;11.33;10.13;;;7.60;94.40;15.30;98578.00;;;;5030040;28;20189;-67
2020/12/08 02:37:36;;;;;;;11.17;10.00;;;7.60;94.40;15.30;98553.00;;;;5028691;28;20461;-67
2020/12/08 02:40:03;;;;;;;12.23;10.83;;;7.60;94.40;15.10;98557.00;;;;5028886;28;20186;-67
2020/12/08 02:42:29;;;;;;;10.93;9.75;;;7.60;94.70;15.20;98550.00;;;;5027848;28;20205;-67
2020/12/08 02:44:55;;;;;;;12.13;10.30;;;7.60;94.40;15.20;98550.00;;;;5029250;28;20178;-67
2020/12/08 02:47:20;;;;;;;12.63;10.73;;;7.60;94.40;15.00;98547.00;;;;5028016;28;20237;-67
2020/12/08 02:49:46;;;;;;;12.30;10.73;;;7.60;94.30;15.20;98544.00;;;;5029802;28;20209;-67
2020/12/08 02:52:12;;;;;;;12.40;11.10;;;7.60;94.40;15.10;98534.00;;;;5028538;28;20763;-67
2020/12/08 02:54:37;;;;;;;12.37;10.60;;;7.60;94.30;15.00;98570.00;;;;5031936;28;20181;-67
2020/12/08 02:57:05;;;;;;;11.93;9.90;;;7.60;94.30;14.90;98562.00;;;;5015026;28;20705;-67
2020/12/08 02:59:32;;;;;;;10.35;9.25;;;7.60;94.30;15.00;98581.00;;;;5031216;28;20187;-67
2020/12/08 03:01:58;;;;;;;11.98;10.70;;;7.60;94.30;15.20;98594.00;;;;5031976;28;20202;-67
2020/12/08 03:04:24;;;;;;;12.60;11.00;;;7.60;94.30;15.00;98589.00;;;;5015035;28;20549;-67
2020/12/08 03:06:50;;;;;;;11.07;9.80;;;7.60;94.30;15.00;98615.00;;;;5031112;28;20257;-67
2020/12/08 03:09:16;;;;;;;12.60;10.35;;;7.60;94.30;14.90;98623.00;;;;5031387;28;20437;-66
2020/12/08 03:11:41;;;;;;;11.60;10.30;;;7.60;94.30;15.00;98611.00;;;;5031672;28;20221;-68
2020/12/08 03:14:07;;;;;;;11.37;10.23;;;7.60;94.30;14.90;98612.00;;;;5031237;28;20575;-68
2020/12/08 03:16:34;;;;;;;12.43;10.60;;;7.60;94.30;14.90;98612.00;;;;5032256;28;20229;-67
2020/12/08 03:19:00;;;;;;;10.45;9.35;;;7.60;94.30;15.10;98613.00;;;;5031813;28;20433;-68
2020/12/08 03:21:26;;;;;;;13.07;10.40;;;7.60;94.30;14.90;98613.00;;;;5030961;28;20708;-67
2020/12/08 03:23:52;;;;;;;11.63;9.97;;;7.60;94.30;14.80;98612.00;;;;5031402;28;20827;-67
2020/12/08 03:26:22;;;;;;;10.97;9.77;;;7.60;94.30;14.90;98625.00;;;;5031708;28;20424;-67
2020/12/08 03:28:48;;;;;;;10.25;8.95;;;7.60;94.30;14.80;98623.00;;;;5030915;28;20184;-67
2020/12/08 03:31:14;;;;;;;10.85;9.75;;;7.60;94.30;15.00;98613.00;;;;5031866;28;20290;-67
2020/12/08 03:33:40;;;;;;;11.65;10.07;;;7.60;94.30;14.90;98620.00;;;;5014352;28;20588;-67
2020/12/08 03:36:18;;;;;;;11.07;9.87;;;7.60;94.30;15.20;98608.00;;;;5031381;28;20210;-67
2020/12/08 03:38:45;;;;;;;11.43;9.02;;;7.60;94.30;15.00;98614.00;;;;5031312;28;20415;-67
2020/12/08 03:41:17;;;;;;;10.85;9.30;;;7.60;94.30;15.30;98625.00;;;;5030860;28;20341;-67
2020/12/08 03:43:42;;;;;;;10.88;9.00;;;7.60;94.30;14.90;98619.00;;;;5014467;28;20665;-67
2020/12/08 03:46:08;;;;;;;11.67;10.10;;;7.60;94.30;15.10;98623.00;;;;5032578;28;20207;-67
2020/12/08 03:48:34;;;;;;;11.40;9.30;;;7.60;94.30;15.20;98613.00;;;;5028911;28;20183;-67
2020/12/08 03:50:59;;;;;;;10.73;9.17;;;7.60;94.30;15.10;98612.00;;;;5014415;28;20206;-67
2020/12/08 03:53:25;;;;;;;12.73;9.33;;;7.60;94.20;15.10;98608.00;;;;5031927;28;20240;-67
2020/12/08 03:55:51;;;;;;;10.63;8.93;;;7.60;94.20;15.00;98622.00;;;;5031605;28;20202;-67
2020/12/08 03:58:16;;;;;;;10.70;9.60;;;7.60;94.30;15.00;98617.00;;;;5031071;28;20186;-67
2020/12/08 04:00:42;;;;;;;10.83;9.53;;;7.60;94.20;15.00;98631.00;;;;5030385;28;20210;-67
2020/12/08 04:03:09;;;;;;;11.18;9.27;;;7.60;94.30;14.90;98638.00;;;;5030035;28;20198;-67
2020/12/08 04:05:35;;;;;;;11.07;9.88;;;7.60;94.20;14.90;98644.00;;;;5031358;28;20233;-67
2020/12/08 04:08:00;;;;;;;10.20;9.07;;;7.60;94.20;15.20;98645.00;;;;5031798;28;20195;-67
2020/12/08 04:10:26;;;;;;;11.27;9.90;;;7.60;94.20;15.10;98644.00;;;;5030866;28;20187;-67
2020/12/08 04:12:52;;;;;;;10.47;9.37;;;7.60;94.20;15.30;98647.00;;;;5031741;28;20242;-68
2020/12/08 04:15:17;;;;;;;11.23;9.17;;;7.60;94.20;14.90;98637.00;;;;5030288;28;20187;-67
2020/12/08 04:17:43;;;;;;;9.83;8.83;;;7.60;94.20;14.90;98629.00;;;;5031528;28;20442;-67
2020/12/08 04:20:09;;;;;;;11.03;9.93;;;7.60;94.20;15.10;98629.00;;;;5031486;28;20549;-68
2020/12/08 04:22:34;;;;;;;10.40;9.00;;;7.60;94.20;15.10;98627.00;;;;5030464;28;20207;-67
2020/12/08 04:25:00;;;;;;;11.57;10.37;;;7.60;94.20;14.90;98648.00;;;;5029818;28;20179;-67
2020/12/08 04:27:26;;;;;;;11.43;9.63;;;7.60;94.20;15.10;98655.00;;;;5031409;28;20257;-67
2020/12/08 04:29:52;;;;;;;11.93;10.73;;;7.60;94.20;15.20;98648.00;;;;5012410;28;20588;-67
2020/12/08 04:32:17;;;;;;;11.50;9.63;;;7.60;94.20;15.00;98649.00;;;;5030182;28;20245;-67
2020/12/08 04:34:43;;;;;;;10.67;8.70;;;7.60;94.60;15.00;98650.00;;;;5031236;28;20186;-67
2020/12/08 04:37:09;;;;;;;10.73;9.63;;;7.50;94.20;14.90;98636.00;;;;5029684;28;20235;-67
2020/12/08 04:39:35;;;;;;;11.30;9.60;;;7.60;94.20;14.90;98651.00;;;;5029745;28;20732;-68
2020/12/08 04:42:01;;;;;;;12.25;9.93;;;7.50;94.50;15.00;98656.00;;;;5030135;28;20696;-67
2020/12/08 04:44:27;;;;;;;11.13;9.73;;;7.50;94.20;14.70;98653.00;;;;5031088;28;20194;-68
2020/12/08 04:46:56;;;;;;;10.97;9.80;;;7.50;94.20;15.00;98658.00;;;;5029527;28;20554;-68
2020/12/08 04:49:27;;;;;;;10.55;9.45;;;7.50;94.20;14.90;98656.00;;;;5031180;28;20182;-67
2020/12/08 04:51:52;;;;;;;11.07;9.50;;;7.50;94.10;14.90;98655.00;;;;5029019;28;20218;-67
2020/12/08 04:54:18;;;;;;;13.37;10.17;;;7.50;94.50;14.90;98649.00;;;;5029551;28;20189;-67
2020/12/08 04:56:46;;;;;;;12.73;8.87;;;7.50;94.10;14.70;98657.00;;;;5030908;28;20206;-67
2020/12/08 04:59:20;;;;;;;11.70;9.85;;;7.50;94.10;14.80;98659.00;;;;5013302;28;20225;-68
2020/12/08 05:01:46;;;;;;;11.35;9.40;;;7.50;94.10;15.10;98649.00;;;;5029420;28;20202;-67
2020/12/08 05:04:11;;;;;;;10.63;8.37;;;7.50;94.10;15.10;98649.00;;;;5030097;28;20676;-68
2020/12/08 05:06:37;;;;;;;10.10;8.13;;;7.50;94.10;15.00;98653.00;;;;5028631;28;20599;-67
2020/12/08 05:09:07;;;;;;;10.67;8.70;;;7.50;94.10;15.00;98658.00;;;;5029623;28;20182;-67
2020/12/08 05:11:34;;;;;;;9.85;8.85;;;7.50;94.10;15.00;98648.00;;;;5012646;28;20690;-67
2020/12/08 05:14:05;;;;;;;10.50;9.40;;;7.50;94.10;14.80;98661.00;;;;5029232;28;20178;-67
2020/12/08 05:16:31;;;;;;;10.63;9.20;;;7.50;94.10;15.00;98664.00;;;;5028060;28;20238;-67
2020/12/08 05:19:10;;;;;;;11.13;9.98;;;7.50;94.10;15.20;98663.00;;;;5030811;28;20242;-67
2020/12/08 05:21:47;;;;;;;10.23;8.27;;;7.50;94.10;15.10;98677.00;;;;5028613;28;20234;-67
2020/12/08 05:24:28;;;;;;;9.57;8.57;;;7.50;94.10;14.90;98673.00;;;;5029340;28;20212;-67
2020/12/08 05:26:59;;;;;;;10.10;8.75;;;7.50;94.10;14.90;98675.00;;;;5028651;28;20203;-67
2020/12/08 05:29:25;;;;;;;9.50;8.48;;;7.50;94.10;14.90;98676.00;;;;5029782;28;20186;-67
2020/12/08 05:31:51;;;;;;;9.85;8.50;;;7.50;94.10;14.90;98678.00;;;;5028217;28;20288;-67
2020/12/08 05:34:21;;;;;;;11.95;9.73;;;7.50;94.10;14.70;98663.00;;;;5028818;28;20190;-67
2020/12/08 05:36:49;;;;;;;10.88;8.68;;;7.50;94.10;14.80;98667.00;;;;5028783;28;20249;-67
2020/12/08 05:39:21;;;;;;;10.10;8.18;;;7.50;94.10;14.80;98660.00;;;;5029114;28;20183;-67
2020/12/08 05:41:47;;;;;;;11.13;8.60;;;7.50;94.10;15.00;98671.00;;;;5011754;28;20202;-67
2020/12/08 05:44:24;;;;;;;11.63;10.07;;;7.50;94.10;14.90;98661.00;;;;5028951;28;20550;-67
2020/12/08 05:46:52;;;;;;;11.30;8.95;;;7.50;94.10;14.90;98669.00;;;;5028569;28;20264;-67
2020/12/08 05:49:17;;;;;;;10.52;8.68;;;7.50;94.10;15.00;98661.00;;;;5027594;28;20691;-67
2020/12/08 05:51:50;;;;;;;10.50;9.23;;;7.50;94.10;14.80;98663.00;;;;5028496;28;20215;-67
2020/12/08 05:54:20;;;;;;;10.77;9.70;;;7.50;94.10;15.00;98656.00;;;;5028908;28;20183;-67
2020/12/08 05:56:51;;;;;;;10.00;8.93;;;7.50;94.10;14.90;98656.00;;;;5027665;28;20213;-67
2020/12/08 05:59:27;;;;;;;9.93;8.57;;;7.50;94.10;15.00;98667.00;;;;5028956;28;20202;-67
2020/12/08 06:01:53;;;;;;;9.77;8.50;;;7.50;94.10;15.00;98662.00;;;;5027985;28;20198;-67
2020/12/08 06:04:18;;;;;;;11.17;8.60;;;7.50;94.10;14.70;98665.00;;;;5012432;28;20189;-67
2020/12/08 06:06:51;;;;;;;11.60;9.60;;;7.50;94.10;15.00;98666.00;;;;5028600;28;20221;-67
2020/12/08 06:09:24;;;;;;;10.30;9.02;;;7.50;94.10;14.80;98668.00;;;;5027989;28;20246;-67
2020/12/08 06:11:50;;;;;;;10.82;8.95;;;7.50;94.10;14.80;98669.00;;;;5028439;28;20237;-67
2020/12/08 06:14:16;;;;;;;11.83;9.57;;;7.50;94.10;14.90;98671.00;;;;5030347;28;20209;-68
2020/12/08 06:16:41;;;;;;;9.73;8.73;;;7.50;94.10;14.70;98675.00;;;;5029353;28;20249;-67
2020/12/08 06:19:07;;;;;;;9.73;8.73;;;7.50;94.10;14.90;98683.00;;;;5029076;28;20183;-67
2020/12/08 06:21:35;;;;;;;11.87;9.57;;;7.50;94.10;14.80;98678.00;;;;5028335;28;20562;-67
2020/12/08 06:24:01;;;;;;;12.38;9.70;;;7.50;94.10;14.80;98672.00;;;;5027939;28;20190;-67
2020/12/08 06:26:34;;;;;;;10.43;9.17;;;7.50;94.10;14.90;98679.00;;;;5012003;28;20473;-67
2020/12/08 06:29:07;;;;;;;10.88;9.25;;;7.50;94.50;14.90;98686.00;;;;5032963;28;20661;-67
2020/12/08 06:31:44;;;;;;;10.60;8.52;;;7.50;94.10;14.90;98676.00;;;;5031689;28;20640;-67
2020/12/08 06:34:17;;;;;;;11.82;9.77;;;7.50;94.10;14.90;98688.00;;;;5032885;28;20217;-67
2020/12/08 06:36:43;;;;;;;10.60;9.07;;;7.50;94.10;15.00;98688.00;;;;5031813;28;20210;-67
2020/12/08 06:39:08;;;;;;;11.70;9.70;;;7.50;94.10;14.90;98689.00;;;;5033166;28;20577;-67
2020/12/08 06:41:37;;;;;;;10.57;8.40;;;7.50;94.10;14.90;98692.00;;;;5032091;28;20333;-67
2020/12/08 06:44:12;;;;;;;10.75;9.40;;;7.50;94.10;15.00;98686.00;;;;5032009;28;20179;-67
2020/12/08 06:46:37;;;;;;;11.85;9.80;;;7.50;94.10;14.80;98710.00;;;;5032101;28;20217;-67
2020/12/08 06:49:04;;;;;;;11.33;9.97;;;7.40;94.10;14.90;98704.00;;;;5032061;28;20194;-67
2020/12/08 06:51:31;;;;;;;10.38;8.82;;;7.50;94.10;14.90;98693.00;;;;5031452;28;20217;-68
2020/12/08 06:53:57;;;;;;;10.45;9.00;;;7.40;94.00;14.90;98707.00;;;;5015143;28;20187;-68
2020/12/08 06:56:30;;;;;;;11.80;9.30;;;7.50;94.10;15.00;98707.00;;;;5032205;28;20198;-67
2020/12/08 06:58:56;;;;;;;10.63;9.52;;;7.40;94.10;15.00;98718.00;;;;5032583;28;20175;-67
2020/12/08 07:01:22;;;;;;;10.85;8.50;;;7.40;94.10;14.70;98718.00;;;;5031961;28;20234;-67
2020/12/08 07:03:49;;;;;;;11.57;9.50;;;7.40;94.00;14.90;98720.00;;;;5033151;28;20641;-67
2020/12/08 07:06:14;;;;;;;11.30;9.43;;;7.40;94.00;14.90;98716.00;;;;5031723;28;20480;-67
2020/12/08 07:08:44;;;;;;;11.10;9.73;;;7.40;94.10;15.00;98725.00;;;;5031876;28;20190;-67
2020/12/08 07:11:20;;;;;;;10.63;9.45;;;7.40;94.00;14.80;98715.00;;;;5032161;28;20689;-67
2020/12/08 07:14:00;;;;;;;10.82;9.18;;;7.40;94.00;14.70;98713.00;;;;5031380;28;20328;-68
2020/12/08 07:16:27;;;;;;;10.70;8.57;;;7.40;94.00;14.90;98725.00;;;;5033329;28;20212;-67
2020/12/08 07:18:54;;;;;;;15.60;10.75;;;7.40;94.00;14.90;98730.00;;;;5015641;28;20218;-67
2020/12/08 07:21:20;;;;;;;10.20;8.52;;;7.40;94.00;14.90;98725.00;;;;5031113;28;20207;-67
2020/12/08 07:23:46;;;;;;;10.15;9.05;;;7.40;94.00;15.00;98730.00;;;;5049102;28;20192;-67
2020/12/08 07:26:15;;;;;;;12.02;9.73;;;7.40;94.00;14.90;98746.00;;;;5051901;28;20359;-67
2020/12/08 07:28:42;;;;;;;10.60;8.85;;;7.40;94.00;14.90;98732.00;;;;5017243;28;20312;-67
2020/12/08 07:31:24;;;;;;;12.18;9.63;;;7.40;94.00;14.80;98759.00;;;;5033420;28;20210;-67
2020/12/08 07:33:51;;;;;;;11.10;9.27;;;7.40;94.00;14.80;98751.00;;;;5048533;28;20229;-67
2020/12/08 07:36:30;;;;;;;12.20;8.95;;;7.40;94.00;14.70;98754.00;;;;5030887;28;20190;-67
2020/12/08 07:38:57;;;;;;;11.73;9.48;;;7.40;94.00;14.50;98763.00;;;;5031157;28;20206;-67
2020/12/08 07:41:30;;;;;;;11.13;9.27;;;7.40;94.00;14.80;98763.00;;;;5030093;28;20203;-67
2020/12/08 07:43:57;;;;;;;12.38;9.82;;;7.40;94.00;14.70;98751.00;;;;5030376;28;20270;-67
2020/12/08 07:46:27;;;;;;;12.23;9.80;;;7.40;94.00;14.70;98767.00;;;;5030078;28;20481;-68
2020/12/08 07:49:07;;;;;;;12.00;9.75;;;7.40;94.00;14.80;98764.00;;;;5030114;28;20681;-67
2020/12/08 07:51:34;;;;;;;12.50;9.95;;;7.40;94.00;15.00;98729.00;;;;5031096;28;20578;-67
2020/12/08 07:54:01;;;;;;;10.65;9.48;;;7.40;94.00;14.90;98775.00;;;;5013593;28;20187;-67
2020/12/08 07:56:28;;;;;;;10.95;8.88;;;7.40;94.00;14.90;98771.00;;;;5030726;28;20301;-67
2020/12/08 07:58:54;;;;;;;10.88;9.75;;;7.40;94.00;14.90;98762.00;;;;5001620;28;20186;-67
2020/12/08 08:01:19;;;;;;;11.20;9.47;;;7.40;94.00;14.90;98767.00;;;;5013348;28;20598;-67
2020/12/08 08:03:45;;;;;;;11.10;9.50;;;7.40;94.00;14.80;98763.00;;;;5029195;28;20436;-67
2020/12/08 08:06:18;;;;;;;10.97;9.80;;;7.40;94.00;14.90;98760.00;;;;5051183;28;20194;-67
2020/12/08 08:08:47;;;;;;;10.50;9.00;;;7.40;94.00;14.90;98770.00;;;;5016848;28;20181;-67
2020/12/08 08:11:17;;;;;;;12.68;10.77;;;7.40;94.00;14.90;98766.00;;;;5033660;28;20285;-67
2020/12/08 08:13:43;;;;;;;11.60;10.40;;;7.40;94.00;14.60;98759.00;;;;5049752;28;20264;-67
2020/12/08 08:16:12;;;;;;;12.30;10.10;;;7.40;94.00;14.90;98778.00;;;;5032250;28;20230;-67
2020/12/08 08:18:38;;;;;;;11.60;9.30;;;7.40;94.30;14.60;98776.00;;;;5029667;28;20259;-67
2020/12/08 08:21:04;;;;;;;11.27;9.43;;;7.40;94.00;15.00;98779.00;;;;5029659;28;20206;-67
2020/12/08 08:23:30;;;;;;;11.03;9.57;;;7.40;94.00;14.80;98779.00;;;;5028936;28;20185;-67
2020/12/08 08:25:57;;;;;;;12.57;10.82;;;7.40;94.00;14.80;98793.00;;;;5029703;28;20939;-67
2020/12/08 08:28:23;;;;;;;10.95;8.98;;;7.40;94.00;14.70;98795.00;;;;5029721;28;20522;-68
2020/12/08 08:30:48;;;;;;;13.00;9.85;;;7.40;94.00;14.70;98791.00;;;;5030679;28;20631;-67
2020/12/08 08:33:14;;;;;;;11.57;9.50;;;7.40;94.00;14.70;98793.00;;;;5027923;28;20242;-67
2020/12/08 08:35:40;;;;;;;12.70;10.80;;;7.40;93.90;14.60;98802.00;;;;5029795;28;20183;-67
2020/12/08 08:38:06;;;;;;;12.33;10.20;;;7.40;94.30;14.60;98794.00;;;;5028588;28;20182;-67
2020/12/08 08:40:32;;;;;;;12.30;9.97;;;7.40;94.00;14.80;98792.00;;;;5029521;28;20421;-67
2020/12/08 08:42:59;;;;;;;11.43;9.43;;;7.40;94.00;14.90;98791.00;;;;5013166;28;20449;-67
2020/12/08 08:45:25;;;;;;;12.95;10.45;;;7.40;94.00;15.00;98801.00;;;;5028601;28;20187;-67
2020/12/08 08:47:50;;;;;;;11.30;8.80;;;7.40;93.90;15.00;98795.00;;;;5028049;28;20522;-67
2020/12/08 08:50:17;;;;;;;12.30;10.30;;;7.40;94.30;14.90;98797.00;;;;5026714;28;20197;-67
2020/12/08 08:52:43;;;;;;;11.15;9.95;;;7.40;94.00;15.00;98806.00;;;;5046835;28;20705;-67
2020/12/08 08:55:10;;;;;;;11.37;9.60;;;7.40;93.90;14.80;98804.00;;;;5031533;28;20217;-67
2020/12/08 08:57:39;;;;;;;14.25;11.60;;;7.40;94.00;14.80;98811.00;;;;5047714;28;20218;-67
2020/12/08 09:00:11;;;;;;;11.43;9.88;;;7.40;93.90;14.90;98806.00;;;;5030363;28;20179;-67
2020/12/08 09:02:37;;;;;;;13.10;9.55;;;7.40;93.90;14.80;98806.00;;;;5029550;28;20226;-67
2020/12/08 09:05:06;;;;;;;11.30;10.03;;;7.40;93.90;15.00;98803.00;;;;5030104;28;20263;-66
2020/12/08 09:07:32;;;;;;;11.13;9.75;;;7.40;93.90;15.00;98800.00;;;;4998417;28;20521;-67
2020/12/08 09:09:58;;;;;;;10.73;8.97;;;7.40;93.90;14.60;98806.00;;;;4996858;28;20280;-67
2020/12/08 09:12:24;;;;;;;10.90;9.10;;;7.40;93.90;14.90;98806.00;;;;5046622;28;21013;-67
2020/12/08 09:14:52;;;;;;;12.07;10.17;;;7.40;93.90;14.90;98797.00;;;;5031414;28;20396;-67
2020/12/08 09:17:18;;;;;;;11.02;9.85;;;7.40;93.90;14.90;98810.00;;;;5031238;28;20532;-67
2020/12/08 09:19:45;;;;;;;11.03;9.57;;;7.40;93.90;14.70;98808.00;;;;5030563;28;20751;-67
2020/12/08 09:22:11;;;;;;;12.05;9.63;;;7.40;94.30;14.80;98807.00;;;;5048673;28;20285;-67
2020/12/08 09:24:36;;;;;;;11.47;9.50;;;7.40;93.90;14.90;98808.00;;;;5047440;28;20277;-67
2020/12/08 09:27:04;;;;;;;12.57;10.27;;;7.40;93.90;14.90;98810.00;;;;5048313;28;20293;-67
2020/12/08 09:29:30;;;;;;;12.55;10.38;;;7.40;93.90;15.00;98802.00;;;;5031921;28;20182;-68
2020/12/08 09:31:56;;;;;;;10.87;9.50;;;7.40;93.90;15.00;98797.00;;;;5048769;28;20363;-67
2020/12/08 09:34:23;;;;;;;11.23;10.05;;;7.40;93.90;14.90;98797.00;;;;5047200;28;20454;-68
2020/12/08 09:36:52;;;;;;;11.18;9.50;;;7.40;93.90;14.70;98805.00;;;;5047198;28;20213;-67
2020/12/08 09:39:18;;;;;;;10.73;9.55;;;7.40;93.90;15.00;98798.00;;;;5047730;28;20178;-68
2020/12/08 09:41:43;;;;;;;11.50;10.30;;;7.40;93.90;15.20;98798.00;;;;5015139;28;20626;-67
2020/12/08 09:44:10;;;;;;;11.70;9.50;;;7.40;93.90;15.10;98785.00;;;;5032139;28;20276;-67
2020/12/08 09:46:45;;;;;;;11.85;9.60;;;7.40;93.90;15.00;98799.00;;;;5030614;28;20269;-67
2020/12/08 09:49:12;;;;;;;10.73;9.40;;;7.40;94.30;14.70;98798.00;;;;5032242;28;20181;-67
2020/12/08 09:51:37;;;;;;;10.95;9.10;;;7.40;93.90;15.00;98787.00;;;;5015524;28;20413;-67
2020/12/08 09:54:04;;;;;;;10.13;9.03;;;7.40;93.90;14.70;98760.00;;;;5014223;28;20633;-67
2020/12/08 09:56:30;;;;;;;10.43;8.38;;;7.40;93.90;14.80;98793.00;;;;5048873;28;20205;-67
2020/12/08 09:58:55;;;;;;;11.50;9.33;;;7.40;93.90;15.10;98784.00;;;;5050011;28;20182;-68
2020/12/08 10:01:28;;;;;;;10.80;9.07;;;7.40;93.90;14.90;98794.00;;;;5047373;28;20228;-67
2020/12/08 10:03:54;;;;;;;10.65;9.50;;;7.40;93.90;15.30;98796.00;;;;5048193;28;20194;-67
2020/12/08 10:06:21;;;;;;;11.30;9.33;;;7.40;93.80;15.20;98795.00;;;;5048625;28;20248;-67
2020/12/08 10:08:47;;;;;;;10.90;9.38;;;7.40;93.80;15.00;98802.00;;;;5031240;28;20181;-67
2020/12/08 10:11:13;;;;;;;10.85;8.77;;;7.40;93.80;15.00;98795.00;;;;5015235;28;20276;-67
2020/12/08 10:13:40;;;;;;;10.63;9.43;;;7.40;93.80;15.00;98796.00;;;;5032247;28;20656;-67
2020/12/08 10:16:06;;;;;;;11.13;9.80;;;7.40;93.90;15.20;98786.00;;;;5037043;28;20224;-67
2020/12/08 10:18:32;;;;;;;11.40;9.40;;;7.40;93.80;15.10;98786.00;;;;4999024;28;20182;-67
2020/12/08 10:20:58;;;;;;;11.47;8.50;;;7.40;93.80;14.90;98776.00;;;;5014909;28;20264;-67
2020/12/08 10:23:24;;;;;;;10.70;9.15;;;7.40;93.90;15.00;98793.00;;;;5030568;28;20515;-67
2020/12/08 10:25:50;;;;;;;10.43;9.30;;;7.40;93.80;15.00;98804.00;;;;5047107;28;20751;-67
2020/12/08 10:28:16;;;;;;;10.83;8.90;;;7.40;93.80;15.00;98792.00;;;;5048997;28;20443;-67
2020/12/08 10:30:41;;;;;;;11.40;9.00;;;7.40;93.80;14.90;98794.00;;;;5012669;28;20202;-67
2020/12/08 10:33:07;;;;;;;10.03;8.50;;;7.40;93.80;14.80;98783.00;;;;5011532;28;20559;-67
2020/12/08 10:35:33;;;;;;;10.23;8.93;;;7.40;93.80;15.20;98796.00;;;;5026820;28;20183;-67
2020/12/08 10:37:59;;;;;;;10.07;8.97;;;7.40;94.20;15.10;98780.00;;;;5027547;28;20852;-67
2020/12/08 10:40:24;;;;;;;9.87;8.87;;;7.40;93.80;15.10;98787.00;;;;5027356;28;20186;-67
2020/12/08 10:42:50;;;;;;;10.33;9.23;;;7.40;93.80;14.90;98787.00;;;;5026980;28;20182;-67
2020/12/08 10:45:16;;;;;;;9.93;8.93;;;7.40;93.80;15.00;98800.00;;;;5026370;28;20194;-68
2020/12/08 10:47:41;;;;;;;11.40;9.60;;;7.40;93.80;15.10;98802.00;;;;5011213;28;20207;-67
2020/12/08 10:50:07;;;;;;;10.30;9.20;;;7.40;93.80;15.10;98797.00;;;;5029438;28;20186;-67
2020/12/08 10:52:33;;;;;;;10.87;9.30;;;7.40;93.80;15.00;98773.00;;;;5027210;28;20257;-67